createdAt,value
2023-08-15T00:01:05.927Z,22.03
2023-08-15T00:03:27.794Z,22.04
2023-08-15T00:05:49.526Z,22.07
2023-08-15T00:08:11.161Z,22.11
2023-08-15T00:10:32.872Z,22.15
2023-08-15T00:12:54.550Z,22.19
2023-08-15T00:15:16.313Z,22.22
2023-08-15T00:17:38.006Z,22.27
2023-08-15T00:19:59.736Z,22.30
2023-08-15T00:22:21.406Z,22.30
2023-08-15T00:24:43.086Z,22.31
2023-08-15T00:27:04.792Z,22.31
2023-08-15T00:29:26.442Z,22.31
2023-08-15T00:31:48.166Z,22.28
2023-08-15T00:34:09.905Z,22.26
2023-08-15T00:36:31.649Z,22.25
2023-08-15T00:38:53.982Z,22.23
2023-08-15T00:41:15.643Z,22.22
2023-08-15T00:43:37.451Z,22.19
2023-08-15T00:46:03.419Z,22.17
2023-08-15T00:48:30.923Z,22.19
2023-08-15T00:50:52.657Z,22.21
2023-08-15T00:53:14.512Z,22.26
2023-08-15T00:55:36.559Z,22.29
2023-08-15T00:57:58.836Z,22.29
2023-08-15T01:00:20.785Z,22.30
2023-08-15T01:02:43.510Z,22.30
2023-08-15T01:05:06.261Z,22.27
2023-08-15T01:07:28.150Z,22.28
2023-08-15T01:09:49.812Z,22.30
2023-08-15T01:12:32.577Z,22.34
2023-08-15T01:15:04.655Z,22.36
2023-08-15T01:17:45.479Z,22.36
2023-08-15T01:20:21.503Z,22.37
2023-08-15T01:22:49.185Z,22.36
2023-08-15T01:25:11.175Z,22.36
2023-08-15T01:27:32.819Z,22.34
2023-08-15T01:29:54.920Z,22.33
2023-08-15T01:32:43.777Z,22.33
2023-08-15T01:35:37.666Z,22.31
2023-08-15T01:38:11.413Z,22.26
2023-08-15T01:40:36.753Z,22.22
2023-08-15T01:43:01.640Z,22.16
2023-08-15T01:45:25.724Z,22.11
2023-08-15T01:47:52.690Z,22.08
2023-08-15T01:50:14.356Z,22.04
2023-08-15T01:52:36.552Z,22.01
2023-08-15T01:54:58.244Z,21.99
2023-08-15T01:57:20.250Z,21.95
2023-08-15T01:59:44.878Z,21.91
2023-08-15T02:02:07.942Z,21.86
2023-08-15T02:04:29.612Z,21.79
2023-08-15T02:06:52.493Z,21.73
2023-08-15T02:09:14.190Z,21.70
2023-08-15T02:11:36.036Z,21.67
2023-08-15T02:13:59.554Z,21.66
2023-08-15T02:16:21.286Z,21.64
2023-08-15T02:18:42.982Z,21.60
2023-08-15T02:21:05.391Z,21.54
2023-08-15T02:23:27.036Z,21.51
2023-08-15T02:25:48.952Z,21.46
2023-08-15T02:28:10.630Z,21.42
2023-08-15T02:30:38.167Z,21.38
2023-08-15T02:32:59.826Z,21.33
2023-08-15T02:35:21.595Z,21.28
2023-08-15T02:37:43.340Z,21.22
2023-08-15T02:40:07.456Z,21.17
2023-08-15T02:42:29.126Z,21.15
2023-08-15T02:44:51.096Z,21.12
2023-08-15T02:47:13.456Z,21.05
2023-08-15T02:49:35.140Z,21.01
2023-08-15T02:51:56.818Z,20.98
2023-08-15T02:54:18.546Z,20.94
2023-08-15T02:56:40.179Z,20.91
2023-08-15T02:59:01.983Z,20.88
2023-08-15T03:01:24.724Z,20.86
2023-08-15T03:03:46.423Z,20.83
2023-08-15T03:06:08.068Z,20.80
2023-08-15T03:08:31.176Z,20.79
2023-08-15T03:10:53.515Z,20.78
2023-08-15T03:13:15.195Z,20.76
2023-08-15T03:15:37.749Z,20.73
2023-08-15T03:17:59.706Z,20.70
2023-08-15T03:20:22.248Z,20.66
2023-08-15T03:22:44.693Z,20.63
2023-08-15T03:25:07.259Z,20.61
2023-08-15T03:27:28.925Z,20.57
2023-08-15T03:29:50.886Z,20.52
2023-08-15T03:32:12.617Z,20.49
2023-08-15T03:34:34.465Z,20.45
2023-08-15T03:36:57.657Z,20.43
2023-08-15T03:39:19.308Z,20.39
2023-08-15T03:41:40.992Z,20.36
2023-08-15T03:44:02.755Z,20.33
2023-08-15T03:46:25.093Z,20.29
2023-08-15T03:48:49.097Z,20.25
2023-08-15T03:51:12.918Z,20.22
2023-08-15T03:53:38.194Z,20.20
2023-08-15T03:56:00.220Z,20.18
2023-08-15T03:58:22.993Z,20.14
2023-08-15T04:00:45.738Z,20.10
2023-08-15T04:03:07.497Z,20.10
2023-08-15T04:05:29.140Z,20.06
2023-08-15T04:07:51.204Z,20.01
2023-08-15T04:10:14.605Z,19.98
2023-08-15T04:12:36.494Z,19.93
2023-08-15T04:14:58.250Z,19.95
2023-08-15T04:17:20.072Z,19.84
2023-08-15T04:19:41.908Z,19.77
2023-08-15T04:22:03.613Z,19.75
2023-08-15T04:24:25.339Z,19.71
2023-08-15T04:26:47.019Z,19.69
2023-08-15T04:29:08.977Z,19.66
2023-08-15T04:31:30.660Z,19.63
2023-08-15T04:33:52.309Z,19.59
2023-08-15T04:36:14.059Z,19.55
2023-08-15T04:38:35.725Z,19.51
2023-08-15T04:40:59.226Z,19.47
2023-08-15T04:43:21.914Z,19.41
2023-08-15T04:45:45.301Z,19.38
2023-08-15T04:48:12.497Z,19.38
2023-08-15T04:50:34.185Z,19.37
2023-08-15T04:52:55.928Z,19.35
2023-08-15T04:55:18.970Z,19.36
2023-08-15T04:57:41.322Z,19.36
2023-08-15T05:00:04.497Z,19.35
2023-08-15T05:02:26.245Z,19.35
2023-08-15T05:04:47.959Z,19.31
2023-08-15T05:07:09.725Z,19.26
2023-08-15T05:09:31.617Z,19.23
2023-08-15T05:11:53.291Z,19.22
2023-08-15T05:14:16.266Z,19.18
2023-08-15T05:16:37.906Z,19.18
2023-08-15T05:18:59.709Z,19.16
2023-08-15T05:21:21.507Z,19.18
2023-08-15T05:23:43.202Z,19.17
2023-08-15T05:26:04.923Z,19.16
2023-08-15T05:28:26.830Z,19.18
2023-08-15T05:30:48.711Z,19.20
2023-08-15T05:33:10.435Z,19.25
2023-08-15T05:35:32.686Z,19.28
2023-08-15T05:37:55.027Z,19.32
2023-08-15T05:40:17.249Z,19.36
2023-08-15T05:42:38.955Z,19.39
2023-08-15T05:45:00.616Z,19.43
2023-08-15T05:47:22.528Z,19.49
2023-08-15T05:49:44.517Z,19.57
2023-08-15T05:52:06.324Z,19.65
2023-08-15T05:54:28.450Z,19.74
2023-08-15T05:56:50.171Z,19.80
2023-08-15T05:59:11.837Z,19.89
2023-08-15T06:01:34.363Z,19.98
2023-08-15T06:03:56.187Z,20.08
2023-08-15T06:06:18.055Z,20.16
2023-08-15T06:08:39.734Z,20.28
2023-08-15T06:11:01.361Z,20.39
2023-08-15T06:13:23.066Z,20.49
2023-08-15T06:15:45.547Z,20.53
2023-08-15T06:18:07.245Z,20.62
2023-08-15T06:20:29.318Z,20.68
2023-08-15T06:22:51.119Z,20.74
2023-08-15T06:25:12.873Z,20.83
2023-08-15T06:27:34.785Z,20.88
2023-08-15T06:29:56.576Z,20.95
2023-08-15T06:32:30.414Z,21.03
2023-08-15T06:34:52.109Z,21.08
2023-08-15T06:37:14.582Z,21.15
2023-08-15T06:39:36.332Z,21.19
2023-08-15T06:41:57.978Z,21.27
2023-08-15T06:44:19.657Z,21.37
2023-08-15T06:46:41.386Z,21.41
2023-08-15T06:49:03.233Z,21.44
2023-08-15T06:51:24.942Z,21.52
2023-08-15T06:53:46.729Z,21.65
2023-08-15T06:56:10.881Z,21.71
2023-08-15T06:58:32.527Z,21.77
2023-08-15T07:00:55.402Z,21.92
2023-08-15T07:03:17.910Z,22.01
2023-08-15T07:05:39.603Z,22.08
2023-08-15T07:08:04.382Z,22.17
2023-08-15T07:10:26.550Z,22.32
2023-08-15T07:12:48.166Z,22.39
2023-08-15T07:15:10.196Z,22.42
2023-08-15T07:17:32.159Z,22.43
2023-08-15T07:19:54.443Z,22.50
2023-08-15T07:22:16.342Z,22.55
2023-08-15T07:24:37.989Z,22.66
2023-08-15T07:26:59.664Z,22.84
2023-08-15T07:29:21.398Z,23.02
2023-08-15T07:31:43.116Z,23.19
2023-08-15T07:34:04.811Z,23.32
2023-08-15T07:36:26.580Z,23.42
2023-08-15T07:38:48.223Z,23.54
2023-08-15T07:41:09.881Z,23.66
2023-08-15T07:43:31.585Z,23.81
2023-08-15T07:45:53.328Z,23.95
2023-08-15T07:48:14.998Z,24.03
2023-08-15T07:50:37.180Z,24.18
2023-08-15T07:52:59.669Z,24.23
2023-08-15T07:55:22.869Z,24.26
2023-08-15T07:57:45.139Z,24.27
2023-08-15T08:00:09.268Z,24.20
2023-08-15T08:02:45.294Z,24.17
2023-08-15T08:05:09.010Z,24.11
2023-08-15T08:07:32.240Z,24.06
2023-08-15T08:09:53.878Z,24.03
2023-08-15T08:12:16.363Z,24.04
2023-08-15T08:14:44.979Z,24.02
2023-08-15T08:17:14.073Z,24.08
2023-08-15T08:19:35.837Z,24.10
2023-08-15T08:21:57.485Z,24.08
2023-08-15T08:24:19.295Z,24.11
2023-08-15T08:26:42.055Z,24.10
2023-08-15T08:29:03.861Z,24.12
2023-08-15T08:31:25.542Z,24.09
2023-08-15T08:33:48.102Z,24.08
2023-08-15T08:36:09.736Z,24.03
2023-08-15T08:38:31.443Z,23.96
2023-08-15T08:40:56.744Z,23.95
2023-08-15T08:43:19.799Z,23.96
2023-08-15T08:45:47.848Z,23.95
2023-08-15T08:48:10.777Z,23.89
2023-08-15T08:50:33.552Z,23.85
2023-08-15T08:52:55.260Z,23.79
2023-08-15T08:55:18.502Z,23.81
2023-08-15T08:57:42.563Z,23.84
2023-08-15T09:00:08.948Z,23.93
2023-08-15T09:02:31.158Z,23.99
2023-08-15T09:04:56.074Z,24.05
2023-08-15T09:07:17.862Z,24.07
2023-08-15T09:09:39.567Z,24.11
2023-08-15T09:12:01.239Z,24.14
2023-08-15T09:14:23.614Z,24.18
2023-08-15T09:16:50.735Z,24.23
2023-08-15T09:19:12.434Z,24.30
2023-08-15T09:21:34.952Z,24.37
2023-08-15T09:23:58.428Z,24.49
2023-08-15T09:26:20.084Z,24.65
2023-08-15T09:28:44.855Z,24.82
2023-08-15T09:31:06.652Z,24.88
2023-08-15T09:33:30.740Z,25.06
2023-08-15T09:35:58.658Z,25.20
2023-08-15T09:38:20.866Z,25.32
2023-08-15T09:40:46.533Z,25.37
2023-08-15T09:43:09.416Z,25.38
2023-08-15T09:45:31.387Z,25.34
2023-08-15T09:47:53.549Z,25.28
2023-08-15T09:50:17.227Z,25.19
2023-08-15T09:52:42.189Z,25.23
2023-08-15T09:55:04.337Z,25.27
2023-08-15T09:57:26.160Z,25.26
2023-08-15T09:59:48.140Z,25.33
2023-08-15T10:02:24.057Z,25.40
2023-08-15T10:04:50.716Z,25.48
2023-08-15T10:07:12.628Z,25.49
2023-08-15T10:09:34.421Z,25.53
2023-08-15T10:11:59.321Z,25.66
2023-08-15T10:14:23.262Z,25.72
2023-08-15T10:16:45.687Z,25.83
2023-08-15T10:19:15.369Z,25.93
2023-08-15T10:21:54.358Z,26.08
2023-08-15T10:24:16.131Z,26.22
2023-08-15T10:26:39.694Z,26.25
2023-08-15T10:29:03.339Z,26.37
2023-08-15T10:31:45.424Z,26.48
2023-08-15T10:34:11.973Z,26.63
2023-08-15T10:36:34.753Z,26.80
2023-08-15T10:38:56.518Z,26.92
2023-08-15T10:41:19.201Z,26.98
2023-08-15T10:43:48.257Z,27.02
2023-08-15T10:46:10.693Z,27.06
2023-08-15T10:49:03.447Z,27.12
2023-08-15T10:51:36.516Z,27.15
2023-08-15T10:54:02.164Z,27.17
2023-08-15T10:56:27.264Z,27.18
2023-08-15T10:58:51.331Z,27.19
2023-08-15T11:01:22.656Z,27.15
2023-08-15T11:03:47.912Z,27.06
2023-08-15T11:06:12.693Z,26.90
2023-08-15T11:08:34.525Z,26.80
2023-08-15T11:10:56.262Z,26.69
2023-08-15T11:13:18.696Z,26.78
2023-08-15T11:15:40.724Z,26.83
2023-08-15T11:18:02.654Z,26.92
2023-08-15T11:20:30.212Z,26.99
2023-08-15T11:23:01.213Z,27.14
2023-08-15T11:25:23.041Z,27.23
2023-08-15T11:27:46.443Z,27.35
2023-08-15T11:30:10.011Z,27.46
2023-08-15T11:32:31.893Z,27.53
2023-08-15T11:34:54.665Z,27.62
2023-08-15T11:37:18.112Z,27.76
2023-08-15T11:39:40.336Z,27.76
2023-08-15T11:42:02.340Z,27.83
2023-08-15T11:44:24.089Z,27.89
2023-08-15T11:46:53.734Z,28.02
2023-08-15T11:49:24.869Z,28.14
2023-08-15T11:51:47.893Z,28.20
2023-08-15T11:54:09.724Z,28.30
2023-08-15T11:56:51.908Z,28.33
2023-08-15T11:59:19.814Z,28.34
2023-08-15T12:01:44.874Z,28.39
2023-08-15T12:04:08.916Z,28.52
2023-08-15T12:06:31.790Z,28.65
2023-08-15T12:08:53.687Z,28.87
2023-08-15T12:11:21.747Z,29.02
2023-08-15T12:13:43.544Z,29.08
2023-08-15T12:16:08.134Z,29.23
2023-08-15T12:18:31.489Z,29.31
2023-08-15T12:20:54.326Z,29.38
2023-08-15T12:23:23.128Z,29.39
2023-08-15T12:25:49.099Z,29.24
2023-08-15T12:28:11.686Z,29.05
2023-08-15T12:30:33.972Z,28.82
2023-08-15T12:32:55.785Z,28.58
2023-08-15T12:35:17.624Z,28.38
2023-08-15T12:37:39.268Z,28.23
2023-08-15T12:40:01.169Z,28.04
2023-08-15T12:42:23.454Z,27.87
2023-08-15T12:44:45.413Z,27.71
2023-08-15T12:47:07.201Z,27.58
2023-08-15T12:49:29.102Z,27.55
2023-08-15T12:51:50.848Z,27.53
2023-08-15T12:54:12.978Z,27.39
2023-08-15T12:56:36.321Z,27.24
2023-08-15T12:58:58.234Z,27.12
2023-08-15T13:01:20.220Z,27.04
2023-08-15T13:03:42.986Z,27.16
2023-08-15T13:06:04.829Z,27.44
2023-08-15T13:08:26.800Z,27.72
2023-08-15T13:10:48.893Z,27.94
2023-08-15T13:13:10.601Z,28.12
2023-08-15T13:15:32.343Z,28.38
2023-08-15T13:17:55.710Z,28.64
2023-08-15T13:20:17.666Z,28.87
2023-08-15T13:22:39.492Z,29.11
2023-08-15T13:25:01.280Z,29.27
2023-08-15T13:27:23.070Z,29.36
2023-08-15T13:29:46.333Z,29.28
2023-08-15T13:32:08.150Z,29.09
2023-08-15T13:34:29.961Z,28.88
2023-08-15T13:36:51.637Z,28.73
2023-08-15T13:39:13.376Z,28.58
2023-08-15T13:41:35.925Z,28.59
2023-08-15T13:43:58.932Z,28.64
2023-08-15T13:46:20.867Z,28.70
2023-08-15T13:48:42.499Z,28.76
2023-08-15T13:51:05.286Z,28.74
2023-08-15T13:53:27.058Z,28.71
2023-08-15T13:55:48.692Z,28.75
2023-08-15T13:58:10.307Z,28.94
2023-08-15T14:00:33.756Z,29.14
2023-08-15T14:02:55.660Z,29.35
2023-08-15T14:05:17.432Z,29.37
2023-08-15T14:07:39.100Z,29.26
2023-08-15T14:10:01.086Z,29.10
2023-08-15T14:12:23.710Z,29.10
2023-08-15T14:14:45.907Z,29.04
2023-08-15T14:17:07.666Z,28.94
2023-08-15T14:19:29.386Z,28.84
2023-08-15T14:21:51.078Z,28.71
2023-08-15T14:24:12.834Z,28.57
2023-08-15T14:26:34.450Z,28.53
2023-08-15T14:28:56.211Z,28.76
2023-08-15T14:31:18.094Z,29.00
2023-08-15T14:33:39.779Z,29.18
2023-08-15T14:36:01.498Z,29.29
2023-08-15T14:38:23.378Z,29.35
2023-08-15T14:40:45.010Z,29.33
2023-08-15T14:43:06.663Z,29.33
2023-08-15T14:45:28.572Z,29.41
2023-08-15T14:47:50.401Z,29.47
2023-08-15T14:50:12.335Z,29.47
2023-08-15T14:52:35.017Z,29.52
2023-08-15T14:54:57.618Z,29.57
2023-08-15T14:57:19.495Z,29.72
2023-08-15T14:59:41.354Z,29.57
2023-08-15T15:02:04.226Z,29.21
2023-08-15T15:04:26.649Z,28.89
2023-08-15T15:06:48.423Z,28.62
2023-08-15T15:09:10.478Z,28.48
2023-08-15T15:11:32.362Z,28.29
2023-08-15T15:13:54.085Z,28.06
2023-08-15T15:16:15.901Z,27.81
2023-08-15T15:18:37.586Z,27.75
2023-08-15T15:20:59.662Z,27.67
2023-08-15T15:23:23.627Z,27.57
2023-08-15T15:25:46.483Z,27.39
2023-08-15T15:28:08.379Z,27.25
2023-08-15T15:30:30.217Z,27.19
2023-08-15T15:32:52.334Z,27.21
2023-08-15T15:35:14.294Z,27.12
2023-08-15T15:37:35.992Z,27.00
2023-08-15T15:40:01.161Z,26.86
2023-08-15T15:42:23.133Z,26.75
2023-08-15T15:44:45.026Z,26.63
2023-08-15T15:47:07.085Z,26.57
2023-08-15T15:49:28.905Z,26.66
2023-08-15T15:51:50.818Z,26.83
2023-08-15T15:54:12.971Z,26.80
2023-08-15T15:56:34.931Z,26.77
2023-08-15T15:58:57.057Z,26.74
2023-08-15T16:01:18.854Z,26.72
2023-08-15T16:03:40.771Z,26.66
2023-08-15T16:06:02.623Z,26.59
2023-08-15T16:08:24.448Z,26.49
2023-08-15T16:10:46.134Z,26.43
2023-08-15T16:13:07.854Z,26.37
2023-08-15T16:15:29.806Z,26.32
2023-08-15T16:17:51.653Z,26.43
2023-08-15T16:20:13.879Z,26.60
2023-08-15T16:22:35.694Z,26.74
2023-08-15T16:24:57.593Z,26.76
2023-08-15T16:27:20.794Z,26.65
2023-08-15T16:29:42.617Z,26.50
2023-08-15T16:32:04.628Z,26.34
2023-08-15T16:34:26.348Z,26.21
2023-08-15T16:36:48.527Z,26.04
2023-08-15T16:39:10.234Z,25.92
2023-08-15T16:41:31.982Z,25.82
2023-08-15T16:43:54.113Z,25.75
2023-08-15T16:46:16.583Z,25.67
2023-08-15T16:48:38.620Z,25.62
2023-08-15T16:51:01.114Z,25.61
2023-08-15T16:53:22.896Z,25.59
2023-08-15T16:55:47.160Z,25.59
2023-08-15T16:58:09.178Z,25.55
2023-08-15T17:00:31.550Z,25.51
2023-08-15T17:02:54.039Z,25.51
2023-08-15T17:05:16.638Z,25.51
2023-08-15T17:07:38.483Z,25.51
2023-08-15T17:10:00.644Z,25.53
2023-08-15T17:12:22.514Z,25.54
2023-08-15T17:14:44.614Z,25.59
2023-08-15T17:17:06.278Z,25.67
2023-08-15T17:19:27.925Z,25.72
2023-08-15T17:21:49.660Z,25.72
2023-08-15T17:24:11.360Z,25.74
2023-08-15T17:26:33.040Z,25.80
2023-08-15T17:28:54.890Z,25.79
2023-08-15T17:31:17.013Z,25.76
2023-08-15T17:33:38.700Z,25.73
2023-08-15T17:36:00.459Z,25.62
2023-08-15T17:38:22.097Z,25.50
2023-08-15T17:40:43.902Z,25.48
2023-08-15T17:43:05.687Z,25.45
2023-08-15T17:45:29.005Z,25.45
2023-08-15T17:47:50.817Z,25.40
2023-08-15T17:50:12.516Z,25.32
2023-08-15T17:52:35.765Z,25.24
2023-08-15T17:54:57.534Z,25.20
2023-08-15T17:57:19.164Z,25.15
2023-08-15T17:59:40.967Z,25.09
2023-08-15T18:02:02.786Z,25.00
2023-08-15T18:04:24.518Z,24.98
2023-08-15T18:06:46.214Z,24.97
2023-08-15T18:09:10.077Z,25.01
2023-08-15T18:11:32.220Z,25.04
2023-08-15T18:13:53.980Z,25.03
2023-08-15T18:16:15.693Z,25.06
2023-08-15T18:18:37.336Z,25.13
2023-08-15T18:20:59.004Z,25.18
2023-08-15T18:23:20.709Z,25.18
2023-08-15T18:25:42.365Z,25.17
2023-08-15T18:28:04.506Z,25.12
2023-08-15T18:30:28.518Z,25.02
2023-08-15T18:32:50.273Z,24.93
2023-08-15T18:35:11.993Z,24.83
2023-08-15T18:37:33.823Z,24.72
2023-08-15T18:39:55.469Z,24.57
2023-08-15T18:42:17.139Z,24.45
2023-08-15T18:44:39.960Z,24.32
2023-08-15T18:47:03.491Z,24.21
2023-08-15T18:49:25.379Z,24.11
2023-08-15T18:51:47.106Z,24.02
2023-08-15T18:54:09.004Z,23.90
2023-08-15T18:56:30.827Z,23.77
2023-08-15T18:58:52.604Z,23.64
2023-08-15T19:01:14.717Z,23.53
2023-08-15T19:03:36.540Z,23.44
2023-08-15T19:05:58.578Z,23.37
2023-08-15T19:08:20.211Z,23.30
2023-08-15T19:10:42.066Z,23.22
2023-08-15T19:13:03.895Z,23.14
2023-08-15T19:15:25.684Z,23.08
2023-08-15T19:17:51.655Z,23.02
2023-08-15T19:20:13.556Z,22.95
2023-08-15T19:22:35.447Z,22.92
2023-08-15T19:24:57.187Z,22.89
2023-08-15T19:27:18.864Z,22.83
2023-08-15T19:29:40.765Z,22.78
2023-08-15T19:32:02.659Z,22.75
2023-08-15T19:34:24.414Z,22.71
2023-08-15T19:36:46.171Z,22.67
2023-08-15T19:39:10.347Z,22.64
2023-08-15T19:41:31.993Z,22.61
2023-08-15T19:43:57.268Z,22.61
2023-08-15T19:46:19.047Z,22.58
2023-08-15T19:48:40.878Z,22.53
2023-08-15T19:51:02.648Z,22.47
2023-08-15T19:53:25.176Z,22.42
2023-08-15T19:55:46.805Z,22.36
2023-08-15T19:58:10.398Z,22.27
2023-08-15T20:00:32.199Z,22.25
2023-08-15T20:02:54.030Z,22.21
2023-08-15T20:05:15.908Z,22.17
2023-08-15T20:07:38.701Z,22.14
2023-08-15T20:10:10.652Z,22.10
2023-08-15T20:12:33.818Z,22.05
2023-08-15T20:14:55.475Z,22.01
2023-08-15T20:17:17.291Z,22.00
2023-08-15T20:19:39.023Z,21.99
2023-08-15T20:22:00.858Z,21.95
2023-08-15T20:24:22.537Z,21.93
2023-08-15T20:26:44.421Z,21.93
2023-08-15T20:29:06.186Z,21.93
2023-08-15T20:31:28.068Z,21.91
2023-08-15T20:33:50.038Z,21.88
2023-08-15T20:36:14.585Z,21.87
2023-08-15T20:38:37.392Z,21.85
2023-08-15T20:40:59.086Z,21.81
2023-08-15T20:43:20.798Z,21.77
2023-08-15T20:45:42.842Z,21.74
2023-08-15T20:48:04.877Z,21.74
2023-08-15T20:50:27.664Z,21.74
2023-08-15T20:52:51.169Z,21.74
2023-08-15T20:55:15.001Z,21.72
2023-08-15T20:57:36.617Z,21.72
2023-08-15T21:00:00.144Z,21.74
2023-08-15T21:02:22.229Z,21.74
2023-08-15T21:04:44.215Z,21.73
2023-08-15T21:07:05.966Z,21.73
2023-08-15T21:09:27.747Z,21.76
2023-08-15T21:11:49.448Z,21.78
2023-08-15T21:14:11.186Z,21.75
2023-08-15T21:16:32.908Z,21.69
2023-08-15T21:18:54.707Z,21.66
2023-08-15T21:21:16.371Z,21.64
2023-08-15T21:23:38.308Z,21.60
2023-08-15T21:25:59.963Z,21.58
2023-08-15T21:28:21.599Z,21.58
2023-08-15T21:30:43.950Z,21.58
2023-08-15T21:33:05.769Z,21.61
2023-08-15T21:35:27.729Z,21.63
2023-08-15T21:37:49.357Z,21.63
2023-08-15T21:40:11.852Z,21.60
2023-08-15T21:42:33.615Z,21.58
2023-08-15T21:44:55.267Z,21.56
2023-08-15T21:47:17.021Z,21.56
2023-08-15T21:49:38.787Z,21.54
2023-08-15T21:52:00.536Z,21.52
2023-08-15T21:54:23.503Z,21.47
2023-08-15T21:56:45.197Z,21.44
2023-08-15T21:59:06.882Z,21.38
2023-08-15T22:01:28.635Z,21.34
2023-08-15T22:03:50.373Z,21.35
2023-08-15T22:06:12.177Z,21.33
2023-08-15T22:08:33.952Z,21.30
2023-08-15T22:10:55.604Z,21.29
2023-08-15T22:13:17.332Z,21.28
2023-08-15T22:15:39.070Z,21.28
2023-08-15T22:18:13.381Z,21.28
2023-08-15T22:20:41.768Z,21.27
2023-08-15T22:23:03.449Z,21.26
2023-08-15T22:25:25.679Z,21.23
2023-08-15T22:27:49.818Z,21.20
2023-08-15T22:30:12.269Z,21.19
2023-08-15T22:32:33.995Z,21.22
2023-08-15T22:34:55.754Z,21.23
2023-08-15T22:37:17.445Z,21.23
2023-08-15T22:39:39.082Z,21.25
2023-08-15T22:42:00.826Z,21.26
2023-08-15T22:44:22.518Z,21.27
2023-08-15T22:46:44.442Z,21.28
2023-08-15T22:49:06.289Z,21.26
2023-08-15T22:51:27.924Z,21.26
2023-08-15T22:53:49.603Z,21.27
2023-08-15T22:56:12.408Z,21.30
2023-08-15T22:58:34.133Z,21.31
2023-08-15T23:00:57.615Z,21.31
2023-08-15T23:03:19.312Z,21.32
2023-08-15T23:05:41.073Z,21.32
2023-08-15T23:08:02.695Z,21.30
2023-08-15T23:10:24.380Z,21.30
2023-08-15T23:12:46.053Z,21.30
2023-08-15T23:15:08.523Z,21.26
2023-08-15T23:17:30.273Z,21.23
2023-08-15T23:19:51.950Z,21.21
2023-08-15T23:22:13.615Z,21.18
2023-08-15T23:24:36.068Z,21.15
2023-08-15T23:26:57.881Z,21.12
2023-08-15T23:29:19.599Z,21.09
2023-08-15T23:31:41.242Z,21.07
2023-08-15T23:34:07.610Z,21.06
2023-08-15T23:36:30.186Z,21.04
2023-08-15T23:38:52.229Z,21.03
2023-08-15T23:41:13.862Z,21.02
2023-08-15T23:43:36.732Z,21.00
2023-08-15T23:45:58.375Z,21.03
2023-08-15T23:48:20.052Z,21.03
2023-08-15T23:50:41.842Z,21.03
2023-08-15T23:53:04.557Z,21.02
2023-08-15T23:55:26.270Z,20.99
2023-08-15T23:57:47.980Z,20.97
